Time;durP1;ratioP1;P1;durP2;ratioP2;P2;SDS_P1;SDS_P2;PMS_P1;PMS_P2;Temp;Humidity;BMP_temperature;BMP_pressure;BME280_temperature;BME280_humidity;BME280_pressure;Samples;Min_cycle;Max_cycle;Signal;HPM_P1;HPM_P2
2023/09/21 00:01:23;;;;;;;7.97;2.50;;;17.90;99.90;;;;;;4954022;28;20121;-76
2023/09/21 00:03:49;;;;;;;4.13;2.28;;;17.90;99.90;;;;;;4974133;28;20043;-76
2023/09/21 00:06:17;;;;;;;8.60;2.80;;;17.90;99.90;;;;;;4950802;28;20122;-76
2023/09/21 00:08:45;;;;;;;6.55;2.22;;;18.10;99.90;;;;;;4949969;28;20043;-76
2023/09/21 00:11:11;;;;;;;6.05;2.30;;;17.90;99.90;;;;;;4942166;28;20047;-76
2023/09/21 00:13:39;;;;;;;5.13;2.28;;;17.90;99.90;;;;;;4957013;28;20086;-76
2023/09/21 00:16:11;;;;;;;4.10;2.45;;;17.90;99.90;;;;;;4958312;28;20130;-76
2023/09/21 00:18:40;;;;;;;7.40;2.80;;;18.00;99.90;;;;;;4973049;28;20129;-76
2023/09/21 00:21:06;;;;;;;5.53;2.65;;;17.90;99.90;;;;;;4953660;29;20134;-76
2023/09/21 00:23:33;;;;;;;6.57;2.40;;;17.90;99.90;;;;;;4939830;28;20082;-77
2023/09/21 00:26:00;;;;;;;5.88;2.30;;;17.90;99.90;;;;;;4953371;28;20047;-76
2023/09/21 00:28:27;;;;;;;6.57;2.25;;;17.90;99.90;;;;;;4970449;28;20035;-76
2023/09/21 00:30:57;;;;;;;6.00;2.45;;;17.90;99.90;;;;;;4974868;28;20073;-76
2023/09/21 00:33:28;;;;;;;6.20;2.40;;;17.90;99.90;;;;;;4974853;28;20178;-77
2023/09/21 00:36:04;;;;;;;4.75;2.25;;;17.90;99.90;;;;;;4956150;28;20410;-77
2023/09/21 00:38:31;;;;;;;5.53;2.42;;;17.90;99.90;;;;;;4961062;28;20522;-76
2023/09/21 00:41:07;;;;;;;9.50;2.50;;;18.00;99.90;;;;;;4964470;28;20039;-76
2023/09/21 00:43:34;;;;;;;8.05;2.40;;;18.00;99.90;;;;;;4944698;28;20034;-76
2023/09/21 00:46:05;;;;;;;5.25;2.20;;;18.00;99.90;;;;;;4950290;28;20043;-76
2023/09/21 00:48:33;;;;;;;4.15;2.50;;;18.00;99.90;;;;;;4966155;28;20090;-76
2023/09/21 00:51:05;;;;;;;5.43;2.78;;;18.00;99.90;;;;;;4974119;28;20507;-77
2023/09/21 00:53:33;;;;;;;4.18;2.33;;;18.00;99.90;;;;;;4975519;28;20153;-76
2023/09/21 00:56:09;;;;;;;5.45;2.30;;;18.00;99.90;;;;;;4974929;28;20414;-76
2023/09/21 00:58:36;;;;;;;5.47;2.25;;;18.10;99.90;;;;;;4941995;28;20043;-77
2023/09/21 01:01:05;;;;;;;5.28;2.33;;;18.00;99.90;;;;;;4953133;28;20035;-77
2023/09/21 01:03:38;;;;;;;6.97;2.63;;;18.20;99.90;;;;;;4942229;28;20096;-76
2023/09/21 01:06:08;;;;;;;6.13;2.47;;;18.00;99.90;;;;;;4976385;28;20534;-76
2023/09/21 01:08:37;;;;;;;5.30;2.40;;;18.00;99.90;;;;;;4963085;28;20522;-76
2023/09/21 01:11:09;;;;;;;5.25;2.67;;;18.00;99.90;;;;;;4955877;28;20483;-76
2023/09/21 01:13:35;;;;;;;5.95;2.65;;;18.00;99.90;;;;;;4974661;28;20090;-76
2023/09/21 01:16:06;;;;;;;7.10;2.55;;;18.00;99.90;;;;;;4974571;28;20039;-76
2023/09/21 01:18:32;;;;;;;5.60;2.50;;;18.00;99.90;;;;;;4962699;28;20047;-76
2023/09/21 01:21:00;;;;;;;4.82;2.65;;;18.00;99.90;;;;;;4949388;28;20043;-76
2023/09/21 01:23:46;;;;;;;6.22;2.58;;;18.10;99.90;;;;;;4958741;28;20039;-76
2023/09/21 01:26:16;;;;;;;7.90;3.08;;;18.00;99.90;;;;;;4954797;28;20035;-76
2023/09/21 01:29:20;;;;;;;5.30;2.60;;;18.00;99.90;;;;;;4958762;28;20046;-76
2023/09/21 01:31:45;;;;;;;4.07;2.42;;;18.00;99.90;;;;;;4960728;28;20043;-76
2023/09/21 01:34:11;;;;;;;5.03;2.45;;;18.00;99.90;;;;;;4957588;28;20057;-76
2023/09/21 01:36:37;;;;;;;5.97;2.42;;;18.00;99.90;;;;;;4968622;28;20104;-76
2023/09/21 01:39:08;;;;;;;7.10;2.72;;;18.00;99.90;;;;;;4960943;28;20105;-76
2023/09/21 01:41:35;;;;;;;7.03;2.70;;;18.00;99.90;;;;;;4942171;28;20043;-76
2023/09/21 01:44:02;;;;;;;3.88;2.40;;;18.00;99.90;;;;;;4957297;28;20046;-76
2023/09/21 01:46:28;;;;;;;6.38;2.70;;;18.00;99.90;;;;;;4957169;28;20178;-76
2023/09/21 01:48:56;;;;;;;6.13;2.30;;;18.00;99.90;;;;;;4972676;28;20050;-76
2023/09/21 01:51:23;;;;;;;5.35;2.55;;;18.00;99.90;;;;;;4954069;28;20043;-76
2023/09/21 01:53:49;;;;;;;5.00;2.20;;;18.00;99.90;;;;;;4965618;28;20083;-76
2023/09/21 01:56:15;;;;;;;5.13;2.47;;;18.00;99.90;;;;;;4952498;28;20035;-76
2023/09/21 01:58:44;;;;;;;5.15;2.42;;;18.00;99.90;;;;;;4957142;28;20473;-77
2023/09/21 02:01:09;;;;;;;5.15;2.47;;;18.00;99.90;;;;;;4962494;28;20049;-76
2023/09/21 02:03:37;;;;;;;8.50;2.17;;;18.00;99.90;;;;;;4975156;28;20035;-76
2023/09/21 02:06:05;;;;;;;4.63;2.50;;;18.00;99.90;;;;;;4961453;28;20105;-76
2023/09/21 02:08:31;;;;;;;5.10;2.60;;;18.30;99.90;;;;;;4956627;28;20049;-76
2023/09/21 02:11:16;;;;;;;5.97;2.50;;;18.10;99.90;;;;;;4975553;28;20058;-76
2023/09/21 02:13:42;;;;;;;4.07;2.35;;;18.00;99.90;;;;;;4952560;28;20066;-77
2023/09/21 02:16:09;;;;;;;6.53;2.42;;;18.00;99.90;;;;;;4941173;28;20094;-77
2023/09/21 02:18:49;;;;;;;7.63;2.65;;;18.00;99.90;;;;;;4963229;28;20039;-77
2023/09/21 02:21:17;;;;;;;4.93;2.40;;;18.00;99.90;;;;;;4961510;28;20043;-77
2023/09/21 02:23:42;;;;;;;5.05;2.72;;;17.80;99.90;;;;;;4976208;28;20078;-77
2023/09/21 02:26:09;;;;;;;6.68;2.60;;;18.00;99.90;;;;;;4977117;28;20466;-76
2023/09/21 02:28:38;;;;;;;4.40;2.50;;;17.90;99.90;;;;;;4955813;28;20042;-77
2023/09/21 02:31:09;;;;;;;4.15;2.55;;;18.00;99.90;;;;;;4957868;28;20118;-76
2023/09/21 02:33:35;;;;;;;4.82;2.70;;;17.90;99.90;;;;;;4947239;28;20047;-76
2023/09/21 02:36:01;;;;;;;6.10;2.60;;;17.90;99.90;;;;;;4953223;28;20041;-77
2023/09/21 02:38:27;;;;;;;6.10;2.50;;;17.90;99.90;;;;;;4946328;28;20083;-77
2023/09/21 02:40:54;;;;;;;5.70;2.45;;;17.90;99.90;;;;;;4964738;28;20117;-77
2023/09/21 02:43:20;;;;;;;4.43;2.65;;;17.70;99.90;;;;;;4953865;28;20050;-77
2023/09/21 02:45:46;;;;;;;5.10;2.55;;;17.80;99.90;;;;;;4952318;28;20043;-77
2023/09/21 02:48:14;;;;;;;5.40;2.20;;;18.00;99.90;;;;;;4944296;28;20054;-77
2023/09/21 02:50:40;;;;;;;6.95;2.58;;;17.80;99.90;;;;;;4964157;28;20073;-76
2023/09/21 02:53:08;;;;;;;5.07;2.80;;;18.30;99.90;;;;;;4941610;28;20047;-76
2023/09/21 02:55:36;;;;;;;4.38;2.65;;;17.80;99.90;;;;;;4974634;28;20041;-76
2023/09/21 02:58:05;;;;;;;5.38;2.70;;;17.90;99.90;;;;;;4944129;28;20045;-76
2023/09/21 03:00:35;;;;;;;7.60;2.67;;;17.80;99.90;;;;;;4952993;28;20395;-76
2023/09/21 03:03:07;;;;;;;7.53;2.78;;;17.70;99.90;;;;;;4957445;28;20043;-76
2023/09/21 03:05:36;;;;;;;4.03;2.55;;;17.70;99.90;;;;;;4944409;28;20403;-76
2023/09/21 03:08:05;;;;;;;6.28;2.55;;;17.70;99.90;;;;;;4962228;28;20404;-77
2023/09/21 03:10:36;;;;;;;4.03;2.10;;;17.70;99.90;;;;;;4961311;28;20043;-77
2023/09/21 03:13:03;;;;;;;7.63;2.70;;;17.70;99.90;;;;;;4968912;28;20052;-76
2023/09/21 03:15:30;;;;;;;4.30;2.08;;;17.70;99.90;;;;;;4967191;28;20043;-76
2023/09/21 03:17:58;;;;;;;4.43;2.30;;;17.70;99.90;;;;;;4972460;28;20068;-76
2023/09/21 03:22:56;;;;;;;7.70;2.67;;;17.70;99.90;;;;;;4962028;28;20045;-76
2023/09/21 03:25:31;;;;;;;5.93;2.53;;;17.70;99.90;;;;;;4973115;28;20053;-76
2023/09/21 03:28:12;;;;;;;3.65;2.22;;;17.80;99.90;;;;;;4962498;28;20030;-76
2023/09/21 03:30:39;;;;;;;3.80;2.60;;;17.80;99.90;;;;;;4949493;28;20054;-76
2023/09/21 03:33:05;;;;;;;5.60;2.53;;;17.80;99.90;;;;;;4971324;28;20314;-76
2023/09/21 03:35:32;;;;;;;5.20;2.30;;;17.80;99.90;;;;;;4957181;28;20039;-76
2023/09/21 03:37:58;;;;;;;5.78;2.50;;;18.30;99.90;;;;;;4956044;28;20043;-76
2023/09/21 03:40:25;;;;;;;7.13;2.70;;;17.70;99.90;;;;;;4945237;28;20073;-76
2023/09/21 03:42:56;;;;;;;4.82;2.35;;;18.20;99.90;;;;;;4969214;28;20039;-76
2023/09/21 03:45:26;;;;;;;6.43;2.60;;;17.90;99.90;;;;;;4952066;28;20050;-76
2023/09/21 03:47:52;;;;;;;4.45;2.30;;;17.80;99.90;;;;;;4951802;28;20046;-76
2023/09/21 03:50:27;;;;;;;5.78;2.35;;;17.80;99.90;;;;;;4968041;28;20035;-76
2023/09/21 03:53:11;;;;;;;6.18;2.33;;;17.80;99.90;;;;;;4976518;28;20106;-76
2023/09/21 03:55:40;;;;;;;4.82;2.10;;;17.80;99.90;;;;;;4963376;28;20043;-76
2023/09/21 03:58:07;;;;;;;3.45;2.08;;;17.80;99.90;;;;;;4962072;28;20529;-76
2023/09/21 04:03:00;;;;;;;3.65;2.30;;;17.90;99.90;;;;;;4961478;28;20042;-76
2023/09/21 04:05:33;;;;;;;5.20;2.15;;;18.00;99.90;;;;;;4936909;28;20047;-76
2023/09/21 04:07:59;;;;;;;4.65;2.00;;;17.90;99.90;;;;;;4938990;28;20039;-76
2023/09/21 04:10:25;;;;;;;6.28;2.13;;;17.90;99.90;;;;;;4958397;28;20346;-76
2023/09/21 04:12:55;;;;;;;4.60;2.33;;;17.90;99.90;;;;;;4974556;28;20620;-77
2023/09/21 04:15:23;;;;;;;6.40;2.25;;;17.90;99.90;;;;;;4943207;28;20035;-76
2023/09/21 04:17:51;;;;;;;4.90;2.30;;;17.90;99.90;;;;;;4965399;28;20038;-77
2023/09/21 04:20:18;;;;;;;4.10;2.33;;;17.90;99.90;;;;;;4961833;28;20042;-77
2023/09/21 04:22:45;;;;;;;7.90;2.50;;;17.90;99.90;;;;;;4968045;28;20030;-76
2023/09/21 04:25:14;;;;;;;4.10;2.10;;;17.90;99.90;;;;;;4957120;28;20476;-77
2023/09/21 04:27:48;;;;;;;7.20;2.42;;;17.90;99.90;;;;;;4936318;28;20043;-77
2023/09/21 04:30:21;;;;;;;6.97;2.50;;;17.80;99.90;;;;;;4955886;28;20093;-77
2023/09/21 04:32:51;;;;;;;5.82;2.40;;;17.80;99.90;;;;;;4943657;28;20046;-77
2023/09/21 04:35:19;;;;;;;7.25;2.10;;;17.80;99.90;;;;;;4958855;28;20067;-77
2023/09/21 04:37:56;;;;;;;5.38;2.47;;;17.80;99.90;;;;;;4958410;28;20043;-77
2023/09/21 04:40:23;;;;;;;4.60;2.08;;;17.80;99.90;;;;;;4958566;28;20039;-77
2023/09/21 04:42:50;;;;;;;5.43;2.15;;;17.90;99.90;;;;;;4941397;28;20126;-77
2023/09/21 04:45:18;;;;;;;6.47;2.40;;;17.70;99.90;;;;;;4938451;29;20047;-77
2023/09/21 04:47:47;;;;;;;6.68;2.42;;;17.70;99.90;;;;;;4963081;28;20515;-77
2023/09/21 04:50:14;;;;;;;4.38;2.20;;;17.70;99.90;;;;;;4955067;28;20043;-76
2023/09/21 04:52:40;;;;;;;5.20;2.25;;;17.60;99.90;;;;;;4958941;28;20569;-77
2023/09/21 04:55:10;;;;;;;5.65;2.30;;;17.60;99.90;;;;;;4956089;29;20047;-77
2023/09/21 04:57:41;;;;;;;3.72;2.38;;;17.60;99.90;;;;;;4962534;28;20047;-77
2023/09/21 05:00:10;;;;;;;6.15;2.28;;;17.40;99.90;;;;;;4957403;28;20039;-77
2023/09/21 05:02:40;;;;;;;4.13;2.28;;;17.50;99.90;;;;;;4975752;28;20454;-77
2023/09/21 05:05:06;;;;;;;4.50;2.30;;;17.50;99.90;;;;;;4937850;28;20037;-76
2023/09/21 05:07:31;;;;;;;4.05;2.10;;;17.50;99.90;;;;;;4974625;28;20137;-76
2023/09/21 05:09:57;;;;;;;8.40;2.53;;;17.50;99.90;;;;;;4959464;28;20058;-76
2023/09/21 05:12:23;;;;;;;5.32;2.38;;;17.50;99.90;;;;;;4976086;28;20077;-76
2023/09/21 05:14:50;;;;;;;5.95;2.15;;;17.50;99.90;;;;;;4965539;28;20039;-76
2023/09/21 05:17:16;;;;;;;5.07;2.53;;;17.90;99.90;;;;;;4972029;28;20114;-76
2023/09/21 05:19:44;;;;;;;5.00;2.30;;;17.50;99.90;;;;;;4974795;28;20158;-76
2023/09/21 05:22:11;;;;;;;4.10;2.10;;;17.50;99.90;;;;;;4975187;28;20069;-76
2023/09/21 05:24:36;;;;;;;4.68;2.33;;;17.60;99.90;;;;;;4974436;28;20526;-76
2023/09/21 05:27:03;;;;;;;6.28;2.60;;;17.50;99.90;;;;;;4959852;28;20051;-76
2023/09/21 05:29:28;;;;;;;3.70;2.33;;;17.60;99.90;;;;;;4958027;28;20133;-76
2023/09/21 05:31:59;;;;;;;4.65;2.38;;;17.60;99.90;;;;;;4977426;28;20043;-76
2023/09/21 05:34:28;;;;;;;4.53;2.10;;;17.60;99.90;;;;;;4944314;28;20079;-76
2023/09/21 05:36:56;;;;;;;3.90;2.15;;;17.60;99.90;;;;;;4959994;28;20525;-76
2023/09/21 05:39:23;;;;;;;4.65;2.08;;;17.60;99.90;;;;;;4971777;28;20039;-77
2023/09/21 05:41:51;;;;;;;7.70;2.45;;;17.60;99.90;;;;;;4942963;28;20563;-77
2023/09/21 05:44:22;;;;;;;6.65;2.60;;;18.10;99.90;;;;;;4960046;28;20047;-77
2023/09/21 05:46:49;;;;;;;4.45;2.10;;;17.70;99.90;;;;;;4964566;28;20462;-77
2023/09/21 05:49:22;;;;;;;6.65;2.58;;;17.70;99.90;;;;;;4952999;28;20046;-77
2023/09/21 05:51:56;;;;;;;6.47;2.78;;;17.70;99.90;;;;;;4943029;28;20049;-77
2023/09/21 05:54:23;;;;;;;5.50;2.10;;;17.70;99.90;;;;;;4943179;28;20089;-77
2023/09/21 05:56:53;;;;;;;7.45;2.67;;;17.70;99.90;;;;;;4932557;29;20054;-77
2023/09/21 05:59:21;;;;;;;8.00;2.60;;;18.00;99.90;;;;;;4956128;28;20078;-77
2023/09/21 06:01:48;;;;;;;5.82;2.50;;;17.70;99.90;;;;;;4974539;28;20039;-77
2023/09/21 06:04:17;;;;;;;8.70;2.90;;;17.70;99.90;;;;;;4969648;28;20043;-77
2023/09/21 06:06:47;;;;;;;4.38;2.20;;;17.70;99.90;;;;;;4972229;28;20039;-77
2023/09/21 06:09:18;;;;;;;6.32;2.70;;;17.70;99.90;;;;;;4943051;28;20105;-77
2023/09/21 06:11:45;;;;;;;6.35;2.40;;;17.90;99.90;;;;;;4958376;28;20130;-77
2023/09/21 06:14:11;;;;;;;5.00;2.30;;;17.80;99.90;;;;;;4957482;28;20057;-77
2023/09/21 06:16:36;;;;;;;4.20;2.20;;;17.70;99.90;;;;;;4971792;28;20046;-77
2023/09/21 06:19:02;;;;;;;4.45;2.58;;;17.80;99.90;;;;;;4952479;28;20045;-77
2023/09/21 06:21:30;;;;;;;5.60;2.30;;;17.80;99.90;;;;;;4950275;28;20031;-76
2023/09/21 06:23:56;;;;;;;5.00;2.67;;;18.20;99.90;;;;;;4971051;28;20068;-76
2023/09/21 06:26:22;;;;;;;5.65;2.30;;;17.80;99.90;;;;;;4958850;28;20049;-77
2023/09/21 06:28:48;;;;;;;4.82;2.53;;;17.80;99.90;;;;;;4962179;28;20047;-77
2023/09/21 06:31:20;;;;;;;4.50;2.72;;;17.80;99.90;;;;;;4955282;28;20403;-77
2023/09/21 06:33:49;;;;;;;4.18;2.33;;;17.80;99.90;;;;;;4939254;28;20039;-77
2023/09/21 06:36:20;;;;;;;4.00;2.30;;;17.80;99.90;;;;;;4969891;28;20455;-76
2023/09/21 06:38:47;;;;;;;4.50;2.20;;;17.80;99.90;;;;;;4961456;28;20098;-76
2023/09/21 06:41:14;;;;;;;5.32;2.90;;;17.90;99.90;;;;;;4940901;28;20039;-76
2023/09/21 06:43:42;;;;;;;7.00;2.63;;;17.90;99.90;;;;;;4932764;28;20089;-76
2023/09/21 06:46:09;;;;;;;4.97;2.35;;;17.90;99.90;;;;;;4972606;28;20042;-76
2023/09/21 06:48:34;;;;;;;4.68;2.38;;;17.90;99.90;;;;;;4935842;28;20039;-76
2023/09/21 06:51:00;;;;;;;4.00;2.30;;;17.80;99.90;;;;;;4961104;28;20068;-76
2023/09/21 06:53:28;;;;;;;5.40;2.40;;;17.80;99.90;;;;;;4946190;28;20043;-76
2023/09/21 06:55:55;;;;;;;7.85;2.70;;;17.80;99.90;;;;;;4962240;28;20074;-77
2023/09/21 06:58:21;;;;;;;4.93;2.90;;;17.70;99.90;;;;;;4948547;28;20133;-76
2023/09/21 07:00:47;;;;;;;8.60;2.70;;;17.80;99.90;;;;;;4973376;28;20530;-76
2023/09/21 07:03:12;;;;;;;7.72;2.45;;;17.70;99.90;;;;;;4940155;28;20039;-76
2023/09/21 07:05:40;;;;;;;5.40;2.42;;;17.70;99.90;;;;;;4943718;28;20050;-76
2023/09/21 07:08:07;;;;;;;5.03;2.38;;;17.70;99.90;;;;;;4959131;28;20050;-77
2023/09/21 07:10:35;;;;;;;3.90;2.15;;;17.70;99.90;;;;;;4973852;28;20043;-77
2023/09/21 07:13:01;;;;;;;4.18;2.45;;;17.70;99.90;;;;;;4962712;28;20086;-77
2023/09/21 07:15:30;;;;;;;5.13;2.85;;;17.90;99.90;;;;;;4959114;28;20434;-76
2023/09/21 07:17:56;;;;;;;6.55;2.72;;;17.70;99.90;;;;;;4957896;28;20142;-76
2023/09/21 07:20:26;;;;;;;6.75;2.60;;;17.70;99.90;;;;;;4971724;28;20031;-76
2023/09/21 07:22:53;;;;;;;4.82;2.85;;;17.80;99.90;;;;;;4974721;28;20525;-76
2023/09/21 07:25:19;;;;;;;3.33;2.22;;;17.80;99.90;;;;;;4974838;28;20031;-76
2023/09/21 07:27:46;;;;;;;6.88;2.70;;;17.80;99.90;;;;;;4940398;28;20070;-76
2023/09/21 07:30:13;;;;;;;5.45;2.55;;;17.90;99.90;;;;;;4955373;28;20050;-76
2023/09/21 07:32:39;;;;;;;5.00;2.85;;;17.80;99.90;;;;;;4951443;28;20086;-76
2023/09/21 07:35:06;;;;;;;4.60;2.45;;;17.80;99.90;;;;;;4955456;28;20073;-76
2023/09/21 07:37:32;;;;;;;4.10;2.70;;;17.80;99.90;;;;;;4947548;28;20043;-76
2023/09/21 07:40:03;;;;;;;5.45;3.17;;;17.80;99.90;;;;;;4955174;28;20480;-76
2023/09/21 07:42:34;;;;;;;4.82;2.50;;;17.90;99.90;;;;;;4938842;28;20035;-76
2023/09/21 07:45:00;;;;;;;6.72;2.78;;;17.80;99.90;;;;;;4971670;28;20699;-76
2023/09/21 07:47:26;;;;;;;5.93;2.80;;;17.90;99.90;;;;;;4972295;28;20046;-76
2023/09/21 07:49:55;;;;;;;5.10;2.75;;;17.80;99.90;;;;;;4964188;28;20043;-77
2023/09/21 07:52:23;;;;;;;4.70;2.55;;;17.90;99.90;;;;;;4956161;28;20082;-76
2023/09/21 07:54:50;;;;;;;3.80;2.70;;;17.90;99.90;;;;;;4957810;28;20069;-75
2023/09/21 07:57:17;;;;;;;5.40;2.95;;;17.90;99.90;;;;;;4963478;28;20035;-75
2023/09/21 07:59:43;;;;;;;5.85;2.80;;;17.90;99.90;;;;;;4965283;28;20039;-75
2023/09/21 08:02:09;;;;;;;7.03;2.80;;;17.80;99.90;;;;;;4964552;28;20050;-75
2023/09/21 08:04:36;;;;;;;5.85;2.85;;;17.80;99.90;;;;;;4972560;28;20034;-76
2023/09/21 08:07:05;;;;;;;4.00;2.40;;;17.80;99.90;;;;;;4961525;28;20125;-75
2023/09/21 08:09:33;;;;;;;4.82;2.53;;;17.90;99.90;;;;;;4953605;28;20057;-75
2023/09/21 08:12:00;;;;;;;4.35;2.45;;;17.80;99.90;;;;;;4974972;28;20043;-75
2023/09/21 08:14:25;;;;;;;6.60;2.80;;;17.80;99.90;;;;;;4976631;28;20039;-75
2023/09/21 08:16:58;;;;;;;6.70;3.10;;;17.80;99.90;;;;;;4974796;28;20045;-76
2023/09/21 08:19:23;;;;;;;;;;;17.90;99.90;;;;;;4971046;28;20035;-75
2023/09/21 08:21:49;;;;;;;6.30;2.72;;;17.80;99.90;;;;;;4968297;28;19925;-75
2023/09/21 08:24:18;;;;;;;6.35;2.80;;;17.90;99.90;;;;;;4959410;28;20542;-75
2023/09/21 08:26:44;;;;;;;4.05;2.65;;;17.90;99.90;;;;;;4976193;28;20046;-75
2023/09/21 08:29:11;;;;;;;6.57;2.65;;;18.00;99.90;;;;;;4975487;28;20042;-75
2023/09/21 08:31:37;;;;;;;5.80;3.20;;;17.90;99.90;;;;;;4969534;28;20057;-75
2023/09/21 08:34:03;;;;;;;4.25;2.72;;;17.90;99.90;;;;;;4976989;28;20039;-75
2023/09/21 08:36:28;;;;;;;5.47;2.92;;;17.90;99.90;;;;;;4978519;28;20415;-75
2023/09/21 08:38:54;;;;;;;6.20;3.05;;;17.90;99.90;;;;;;4973319;28;20039;-75
2023/09/21 08:41:19;;;;;;;5.40;3.20;;;17.80;99.90;;;;;;4959610;28;20146;-75
2023/09/21 08:43:47;;;;;;;4.57;2.83;;;17.80;99.90;;;;;;4978893;28;20050;-75
2023/09/21 08:46:13;;;;;;;6.25;3.20;;;17.80;99.90;;;;;;4953791;28;20038;-75
2023/09/21 08:48:40;;;;;;;5.65;3.08;;;17.70;99.90;;;;;;4961661;28;20109;-75
2023/09/21 08:51:18;;;;;;;7.32;3.30;;;17.70;99.90;;;;;;4957584;28;20047;-75
2023/09/21 08:53:50;;;;;;;7.38;3.13;;;17.70;99.90;;;;;;4961489;28;20121;-76
2023/09/21 08:56:16;;;;;;;6.93;2.95;;;17.80;99.90;;;;;;4963732;28;20050;-76
2023/09/21 08:58:43;;;;;;;6.45;3.00;;;17.70;99.90;;;;;;4966767;28;20042;-76
2023/09/21 09:01:11;;;;;;;6.00;3.10;;;17.70;99.90;;;;;;4962580;28;20039;-75
2023/09/21 09:03:38;;;;;;;5.30;3.30;;;17.70;99.90;;;;;;4975000;28;20050;-75
2023/09/21 09:06:04;;;;;;;8.93;3.63;;;17.70;99.90;;;;;;4959580;28;20107;-75
2023/09/21 09:08:30;;;;;;;8.02;3.40;;;17.70;99.90;;;;;;4977827;28;20042;-76
2023/09/21 09:10:55;;;;;;;10.73;3.60;;;17.70;99.90;;;;;;4966375;28;20039;-76
2023/09/21 09:13:31;;;;;;;5.95;3.38;;;17.70;99.90;;;;;;4978177;28;20039;-76
2023/09/21 09:15:59;;;;;;;13.18;4.30;;;17.70;99.90;;;;;;4964044;28;20055;-76
2023/09/21 09:18:26;;;;;;;7.50;3.70;;;17.60;99.90;;;;;;4977115;28;20047;-76
2023/09/21 09:20:51;;;;;;;7.38;4.00;;;17.50;99.90;;;;;;4974777;28;20046;-76
2023/09/21 09:23:18;;;;;;;5.30;3.53;;;17.50;99.90;;;;;;4976217;28;20072;-76
2023/09/21 09:25:43;;;;;;;7.55;3.90;;;17.50;99.90;;;;;;4966924;28;20039;-75
2023/09/21 09:28:10;;;;;;;5.10;3.50;;;17.40;99.90;;;;;;4971915;28;20042;-75
2023/09/21 09:30:41;;;;;;;7.20;3.08;;;17.40;99.90;;;;;;4961760;28;20035;-75
2023/09/21 09:33:12;;;;;;;3.88;2.60;;;17.40;99.90;;;;;;4978719;28;20093;-75
2023/09/21 09:35:45;;;;;;;4.22;2.75;;;17.40;99.90;;;;;;4953263;28;20042;-75
2023/09/21 09:38:15;;;;;;;3.90;2.28;;;17.30;99.90;;;;;;4967349;28;20118;-74
2023/09/21 09:40:42;;;;;;;3.97;2.30;;;17.30;99.90;;;;;;4976245;28;20031;-75
2023/09/21 09:43:12;;;;;;;3.03;1.80;;;17.30;99.90;;;;;;4975851;28;20514;-74
2023/09/21 09:45:38;;;;;;;2.50;1.70;;;17.30;99.90;;;;;;4970011;28;20039;-74
2023/09/21 09:48:12;;;;;;;2.38;1.52;;;17.20;99.90;;;;;;4953357;28;20411;-74
2023/09/21 09:50:41;;;;;;;3.17;1.23;;;17.20;99.90;;;;;;4953695;28;20276;-74
2023/09/21 09:53:13;;;;;;;1.67;0.90;;;17.20;99.90;;;;;;4954408;28;20058;-74
2023/09/21 09:55:42;;;;;;;1.77;1.00;;;17.10;99.90;;;;;;4937731;28;20046;-74
2023/09/21 09:58:09;;;;;;;1.90;1.20;;;17.10;99.90;;;;;;4959850;28;20043;-74
2023/09/21 10:00:36;;;;;;;1.60;0.98;;;17.10;99.90;;;;;;4974010;28;20086;-74
2023/09/21 10:03:03;;;;;;;1.90;0.95;;;17.10;99.90;;;;;;4961381;28;20072;-74
2023/09/21 10:05:30;;;;;;;2.28;1.17;;;17.10;99.90;;;;;;4944720;28;20049;-74
2023/09/21 10:08:00;;;;;;;1.35;1.08;;;17.00;99.90;;;;;;4975545;28;20061;-74
2023/09/21 10:10:32;;;;;;;1.45;1.00;;;17.10;99.90;;;;;;4965252;28;20488;-75
2023/09/21 10:12:57;;;;;;;1.43;1.00;;;17.00;99.90;;;;;;4979667;28;20421;-74
2023/09/21 10:15:24;;;;;;;2.53;1.20;;;17.00;99.90;;;;;;4946505;28;20126;-74
2023/09/21 10:17:54;;;;;;;1.63;1.05;;;17.00;99.90;;;;;;4945869;28;20102;-74
2023/09/21 10:20:27;;;;;;;2.10;1.02;;;17.00;99.90;;;;;;4960481;28;20034;-74
2023/09/21 10:22:54;;;;;;;1.67;0.70;;;17.00;99.90;;;;;;4960014;28;20054;-74
2023/09/21 10:25:55;;;;;;;1.33;0.80;;;16.90;99.90;;;;;;4975680;28;20513;-74
2023/09/21 10:28:27;;;;;;;1.90;0.82;;;16.90;99.90;;;;;;4984157;23;20136;-72
2023/09/21 10:30:53;;;;;;;2.10;1.20;;;16.90;99.90;;;;;;4988931;28;20050;-72
2023/09/21 10:33:19;;;;;;;2.30;0.80;;;16.90;99.90;;;;;;4988588;28;20041;-72
2023/09/21 10:35:45;;;;;;;1.30;0.90;;;16.90;99.90;;;;;;4988945;28;20117;-72
2023/09/21 10:38:16;;;;;;;3.42;1.10;;;17.00;99.90;;;;;;4988432;28;20137;-72
2023/09/21 10:40:42;;;;;;;2.10;0.75;;;17.00;99.90;;;;;;4987046;28;20492;-72
2023/09/21 10:43:36;;;;;;;1.80;1.02;;;17.10;99.90;;;;;;4969309;28;20074;-72
2023/09/21 10:46:03;;;;;;;1.55;0.80;;;17.10;99.90;;;;;;4982671;28;20038;-72
2023/09/21 10:48:29;;;;;;;3.40;0.93;;;17.10;99.90;;;;;;4984548;28;20251;-72
2023/09/21 10:50:56;;;;;;;2.22;0.90;;;17.10;99.90;;;;;;4984361;28;20034;-72
2023/09/21 10:53:23;;;;;;;1.15;0.80;;;17.20;99.90;;;;;;4976106;28;20549;-72
2023/09/21 10:55:49;;;;;;;1.27;0.80;;;17.20;99.90;;;;;;4985873;28;20049;-72
2023/09/21 10:58:17;;;;;;;2.40;1.00;;;17.10;99.90;;;;;;4981986;28;20034;-72
2023/09/21 11:00:43;;;;;;;0.85;0.80;;;17.20;99.90;;;;;;4986804;28;20042;-72
2023/09/21 11:03:13;;;;;;;2.28;0.95;;;17.20;99.90;;;;;;4980048;28;20037;-72
2023/09/21 11:05:39;;;;;;;2.42;1.00;;;17.20;99.90;;;;;;4987678;28;20058;-72
2023/09/21 11:08:06;;;;;;;1.05;0.60;;;17.20;99.90;;;;;;4982422;28;20042;-72
2023/09/21 11:10:33;;;;;;;0.80;0.77;;;17.10;99.90;;;;;;4969436;28;20051;-72
2023/09/21 11:12:58;;;;;;;1.30;0.73;;;17.10;99.90;;;;;;4987928;28;20077;-72
2023/09/21 11:15:25;;;;;;;2.85;1.00;;;17.00;99.90;;;;;;4987081;28;20069;-72
2023/09/21 11:17:51;;;;;;;0.82;0.77;;;17.00;99.90;;;;;;4988585;28;20567;-72
2023/09/21 11:20:18;;;;;;;1.95;0.93;;;17.00;99.90;;;;;;4965604;28;20076;-72
2023/09/21 11:22:45;;;;;;;1.63;0.93;;;16.90;99.90;;;;;;4967489;28;20460;-72
2023/09/21 11:25:16;;;;;;;2.38;1.23;;;17.00;99.90;;;;;;4962122;28;20030;-72
2023/09/21 11:27:42;;;;;;;1.13;1.03;;;17.00;99.90;;;;;;4980858;28;20150;-72
2023/09/21 11:30:11;;;;;;;1.42;0.75;;;17.10;99.90;;;;;;4983837;28;20576;-72
2023/09/21 11:32:48;;;;;;;1.40;0.80;;;17.10;99.90;;;;;;4980903;28;20271;-72
2023/09/21 11:35:18;;;;;;;2.13;1.15;;;17.10;99.90;;;;;;4982829;28;20402;-72
2023/09/21 11:37:46;;;;;;;2.38;1.00;;;17.10;99.90;;;;;;4961523;28;20053;-72
2023/09/21 11:40:13;;;;;;;1.20;0.90;;;17.10;99.90;;;;;;4985441;28;20412;-72
2023/09/21 11:42:45;;;;;;;3.47;0.90;;;17.00;99.90;;;;;;4980485;28;20042;-72
2023/09/21 11:45:16;;;;;;;1.55;1.00;;;17.00;99.90;;;;;;4984619;28;20034;-72
2023/09/21 11:47:46;;;;;;;1.15;1.00;;;17.00;99.90;;;;;;4987148;28;20050;-72
2023/09/21 11:50:18;;;;;;;1.77;1.10;;;16.90;99.90;;;;;;4965980;28;20476;-72
2023/09/21 11:52:44;;;;;;;4.55;1.20;;;16.90;99.90;;;;;;4969787;28;20050;-72
2023/09/21 11:55:11;;;;;;;1.20;1.05;;;16.90;99.90;;;;;;4982802;28;20045;-72
2023/09/21 11:57:37;;;;;;;4.25;1.30;;;16.80;99.90;;;;;;4985947;28;21318;-72
2023/09/21 12:00:15;;;;;;;1.90;1.40;;;16.70;99.90;;;;;;4970322;28;20104;-72
2023/09/21 12:02:41;;;;;;;3.22;1.02;;;16.70;99.90;;;;;;4989176;28;20050;-72
2023/09/21 12:05:10;;;;;;;1.50;1.08;;;16.60;99.90;;;;;;4990154;28;20092;-71
2023/09/21 12:07:36;;;;;;;3.70;1.20;;;16.60;99.90;;;;;;4990785;28;20185;-72
2023/09/21 12:10:02;;;;;;;2.47;1.00;;;16.60;99.90;;;;;;4990822;28;20559;-72
2023/09/21 12:12:28;;;;;;;2.75;1.10;;;16.60;99.90;;;;;;4969498;28;20468;-72
2023/09/21 12:14:53;;;;;;;2.10;1.00;;;16.60;99.90;;;;;;4990049;28;20236;-72
2023/09/21 12:17:19;;;;;;;2.05;1.10;;;16.70;99.90;;;;;;4992429;28;20492;-72
2023/09/21 12:19:45;;;;;;;1.63;1.15;;;16.70;99.90;;;;;;4990387;28;20049;-71
2023/09/21 12:22:12;;;;;;;2.67;1.27;;;16.70;99.90;;;;;;4990068;28;20053;-71
2023/09/21 12:24:37;;;;;;;3.22;1.23;;;16.70;99.90;;;;;;4989871;28;20414;-72
2023/09/21 12:27:06;;;;;;;3.50;1.27;;;16.70;99.90;;;;;;4973416;28;20046;-72
2023/09/21 12:29:33;;;;;;;2.47;1.17;;;16.60;99.90;;;;;;4967225;28;20441;-72
2023/09/21 12:31:59;;;;;;;1.83;1.30;;;16.70;99.90;;;;;;4984634;28;20069;-72
2023/09/21 12:34:26;;;;;;;2.45;1.38;;;16.60;99.90;;;;;;4976304;28;20042;-71
2023/09/21 12:36:52;;;;;;;2.65;1.23;;;16.70;99.90;;;;;;4976446;28;20046;-72
2023/09/21 12:39:18;;;;;;;2.03;1.30;;;16.70;99.90;;;;;;4976535;28;20045;-72
2023/09/21 12:41:44;;;;;;;3.20;1.50;;;16.70;99.90;;;;;;4987239;28;20049;-71
2023/09/21 12:44:10;;;;;;;4.47;1.30;;;16.80;99.90;;;;;;4988305;28;20460;-71
2023/09/21 12:46:39;;;;;;;2.28;1.30;;;16.80;99.90;;;;;;4990477;28;20122;-72
2023/09/21 12:49:05;;;;;;;2.60;1.27;;;16.80;99.90;;;;;;4985149;28;20580;-70
2023/09/21 12:51:34;;;;;;;2.28;1.25;;;16.80;99.90;;;;;;4986017;28;20122;-70
2023/09/21 12:54:01;;;;;;;1.73;1.20;;;16.80;99.90;;;;;;4972554;28;20043;-69
2023/09/21 12:56:27;;;;;;;2.35;1.23;;;16.80;99.90;;;;;;4987462;28;20042;-70
2023/09/21 12:58:54;;;;;;;3.00;1.38;;;16.90;99.90;;;;;;4987517;28;20045;-70